Time;durP1;ratioP1;P1;durP2;ratioP2;P2;SDS_P1;SDS_P2;PMS_P1;PMS_P2;Temp;Humidity;BMP_temperature;BMP_pressure;BME280_temperature;BME280_humidity;BME280_pressure;Samples;Min_cycle;Max_cycle;Signal;HPM_P1;HPM_P2
2023/01/24 00:02:24;;;;;;;26.35;15.05;;;;;;;;;;4992677;28;20698;-53
2023/01/24 00:04:50;;;;;;;29.13;17.48;;;;;;;;;;4976806;28;20034;-57
2023/01/24 00:07:16;;;;;;;27.50;16.42;;;;;;;;;;4972632;28;20148;-57
2023/01/24 00:09:42;;;;;;;24.02;15.10;;;;;;;;;;4973420;28;20062;-57
2023/01/24 00:12:08;;;;;;;25.70;15.55;;;;;;;;;;4973500;28;20027;-59
2023/01/24 00:14:34;;;;;;;22.45;13.40;;;;;;;;;;5007489;28;20081;-57
2023/01/24 00:17:00;;;;;;;23.05;13.93;;;;;;;;;;4992692;28;20022;-54
2023/01/24 00:19:26;;;;;;;22.02;13.57;;;;;;;;;;4992259;28;20022;-57
2023/01/24 00:21:52;;;;;;;22.92;14.07;;;;;;;;;;5007731;28;20046;-56
2023/01/24 00:24:19;;;;;;;22.88;13.35;;;;;;;;;;4992280;28;20068;-56
2023/01/24 00:26:45;;;;;;;26.17;15.35;;;;;;;;;;5006859;28;20018;-54
2023/01/24 00:29:11;;;;;;;23.27;14.48;;;;;;;;;;4987351;28;20059;-57
2023/01/24 00:31:37;;;;;;;22.02;13.63;;;;;;;;;;4973577;28;20030;-56
2023/01/24 00:34:03;;;;;;;24.45;14.68;;;;;;;;;;4976066;28;20030;-55
2023/01/24 00:36:29;;;;;;;23.77;14.25;;;;;;;;;;4992390;28;20482;-56
2023/01/24 00:38:55;;;;;;;24.42;14.63;;;;;;;;;;4990540;28;20050;-55
2023/01/24 00:41:21;;;;;;;22.95;13.52;;;;;;;;;;4992070;28;20042;-54
2023/01/24 00:43:47;;;;;;;24.63;13.80;;;;;;;;;;4992218;28;20030;-56
2023/01/24 00:46:13;;;;;;;23.27;14.57;;;;;;;;;;4993919;28;20076;-57
2023/01/24 00:48:39;;;;;;;22.80;13.88;;;;;;;;;;5009180;28;20038;-52
2023/01/24 00:51:05;;;;;;;26.83;14.38;;;;;;;;;;4994749;28;20057;-55
2023/01/24 00:53:31;;;;;;;23.63;13.85;;;;;;;;;;4994756;28;20014;-56
2023/01/24 00:55:57;;;;;;;23.92;14.05;;;;;;;;;;4994869;28;20033;-59
2023/01/24 00:58:23;;;;;;;25.15;15.15;;;;;;;;;;4994966;28;20113;-54
2023/01/24 01:00:49;;;;;;;23.40;13.35;;;;;;;;;;4994700;28;20676;-60
2023/01/24 01:03:16;;;;;;;23.90;14.02;;;;;;;;;;5009944;28;20033;-57
2023/01/24 01:05:42;;;;;;;22.60;13.52;;;;;;;;;;5010048;28;20372;-55
2023/01/24 01:08:09;;;;;;;23.25;13.60;;;;;;;;;;4994988;28;20037;-55
2023/01/24 01:10:35;;;;;;;24.77;14.35;;;;;;;;;;5010035;28;20066;-54
2023/01/24 01:13:01;;;;;;;21.45;12.95;;;;;;;;;;5009273;28;20114;-58
2023/01/24 01:15:27;;;;;;;23.80;14.15;;;;;;;;;;5009979;28;20031;-56
2023/01/24 01:17:53;;;;;;;22.27;13.43;;;;;;;;;;4995005;28;20494;-57
2023/01/24 01:20:19;;;;;;;23.45;14.07;;;;;;;;;;5009900;28;20026;-55
2023/01/24 01:22:45;;;;;;;24.83;14.93;;;;;;;;;;5009939;28;20018;-55
2023/01/24 01:25:11;;;;;;;24.25;14.90;;;;;;;;;;4994605;28;20072;-55
2023/01/24 01:27:37;;;;;;;23.35;14.38;;;;;;;;;;4994764;28;20026;-56
2023/01/24 01:30:03;;;;;;;23.30;14.65;;;;;;;;;;4994721;28;20111;-57
2023/01/24 01:32:29;;;;;;;25.05;15.57;;;;;;;;;;4995067;28;20018;-56
2023/01/24 01:34:55;;;;;;;25.77;15.23;;;;;;;;;;4994468;28;20613;-57
2023/01/24 01:37:21;;;;;;;24.48;15.45;;;;;;;;;;4994596;28;20084;-54
2023/01/24 01:39:47;;;;;;;25.27;14.73;;;;;;;;;;4994676;28;20471;-54
2023/01/24 01:42:14;;;;;;;27.23;15.70;;;;;;;;;;5034912;23;20041;-62
2023/01/24 01:44:48;;;;;;;26.67;15.80;;;;;;;;;;5031478;28;20033;-62
2023/01/24 01:47:25;;;;;;;26.58;15.77;;;;;;;;;;5033408;28;20030;-62
2023/01/24 01:49:59;;;;;;;24.33;15.05;;;;;;;;;;5032172;28;20028;-62
2023/01/24 01:52:26;;;;;;;25.98;15.48;;;;;;;;;;5033235;28;20049;-60
2023/01/24 01:54:53;;;;;;;26.55;16.50;;;;;;;;;;5033140;28;20033;-62
2023/01/24 01:57:27;;;;;;;27.05;15.80;;;;;;;;;;5048780;28;20026;-61
2023/01/24 01:59:56;;;;;;;24.70;14.98;;;;;;;;;;5033230;28;20087;-62
2023/01/24 02:02:22;;;;;;;;;;;;;;;;;;5033646;28;20029;-62
2023/01/24 02:04:53;;;;;;;26.88;15.90;;;;;;;;;;5032771;28;19909;-62
2023/01/24 02:07:21;;;;;;;24.30;16.17;;;;;;;;;;5033171;28;20029;-61
2023/01/24 02:09:49;;;;;;;26.58;15.20;;;;;;;;;;5033194;28;20029;-62
2023/01/24 02:12:18;;;;;;;23.05;14.68;;;;;;;;;;5033027;28;20022;-61
2023/01/24 02:17:31;;;;;;;27.25;18.55;;;;;;;;;;5033307;28;20040;-61
2023/01/24 02:20:05;;;;;;;27.25;16.77;;;;;;;;;;5032989;28;20048;-62
2023/01/24 02:22:37;;;;;;;29.45;16.33;;;;;;;;;;5031128;28;20030;-63
2023/01/24 02:25:13;;;;;;;27.15;16.27;;;;;;;;;;5030644;28;20029;-61
2023/01/24 02:27:39;;;;;;;25.17;14.68;;;;;;;;;;5033037;28;20025;-62
2023/01/24 02:30:05;;;;;;;27.90;15.13;;;;;;;;;;5033033;28;20367;-62
2023/01/24 02:32:31;;;;;;;27.27;15.18;;;;;;;;;;5031180;28;20021;-62
2023/01/24 02:34:57;;;;;;;24.75;15.35;;;;;;;;;;5031165;28;20466;-63
2023/01/24 02:37:24;;;;;;;26.30;14.65;;;;;;;;;;5032570;28;20026;-63
2023/01/24 02:39:54;;;;;;;25.08;14.77;;;;;;;;;;5032619;28;20026;-62
2023/01/24 02:42:22;;;;;;;25.83;14.48;;;;;;;;;;5032393;28;20045;-62
2023/01/24 02:44:53;;;;;;;26.65;15.77;;;;;;;;;;5031897;28;20025;-62
2023/01/24 02:47:19;;;;;;;27.00;14.90;;;;;;;;;;5032408;28;20553;-64
2023/01/24 02:49:45;;;;;;;27.83;15.65;;;;;;;;;;5032517;28;20033;-61
2023/01/24 02:54:56;;;;;;;28.40;15.48;;;;;;;;;;5032146;28;20115;-63
2023/01/24 03:00:07;;;;;;;26.83;15.30;;;;;;;;;;5032272;28;20048;-57
2023/01/24 03:02:33;;;;;;;26.55;15.88;;;;;;;;;;5032007;28;20375;-63
2023/01/24 03:04:59;;;;;;;28.88;17.63;;;;;;;;;;5030539;28;20511;-63
2023/01/24 03:07:25;;;;;;;30.08;16.35;;;;;;;;;;5031973;28;20111;-63
2023/01/24 03:09:51;;;;;;;24.58;14.40;;;;;;;;;;5030738;28;20072;-63
2023/01/24 03:34:29;;;;;;;24.35;14.43;;;;;;;;;;5031129;28;20497;-59
2023/01/24 03:36:55;;;;;;;24.70;16.13;;;;;;;;;;5031616;28;20553;-63
2023/01/24 03:42:06;;;;;;;23.38;12.90;;;;;;;;;;5031598;28;20040;-59
2023/01/24 03:44:32;;;;;;;22.73;14.38;;;;;;;;;;5029833;28;20033;-62
2023/01/24 03:46:59;;;;;;;23.65;14.88;;;;;;;;;;5050497;28;20416;-61
2023/01/24 03:52:28;;;;;;;23.40;14.57;;;;;;;;;;5051206;28;20086;-62
2023/01/24 03:54:58;;;;;;;24.98;14.48;;;;;;;;;;5050876;28;20541;-62
2023/01/24 03:57:24;;;;;;;23.55;14.43;;;;;;;;;;5033363;28;20580;-60
2023/01/24 03:59:50;;;;;;;21.50;13.77;;;;;;;;;;5051271;28;20032;-62
2023/01/24 04:02:16;;;;;;;23.80;14.77;;;;;;;;;;5050938;28;20025;-61
2023/01/24 04:07:27;;;;;;;24.48;13.73;;;;;;;;;;5051518;28;20369;-62
2023/01/24 04:09:53;;;;;;;24.75;14.18;;;;;;;;;;5033289;28;20481;-62
2023/01/24 04:12:20;;;;;;;23.52;14.75;;;;;;;;;;5033219;28;20155;-62
2023/01/24 04:14:46;;;;;;;24.42;14.63;;;;;;;;;;5050768;28;20064;-62
2023/01/24 04:17:12;;;;;;;23.60;14.57;;;;;;;;;;5051061;28;20079;-61
2023/01/24 04:19:38;;;;;;;24.33;13.82;;;;;;;;;;5033452;28;20366;-61
2023/01/24 04:22:04;;;;;;;22.85;13.68;;;;;;;;;;5051334;28;20116;-62
2023/01/24 04:24:30;;;;;;;25.98;16.30;;;;;;;;;;5050784;28;20102;-62
2023/01/24 04:26:56;;;;;;;26.58;16.10;;;;;;;;;;5051027;28;20060;-63
2023/01/24 04:29:22;;;;;;;23.63;14.13;;;;;;;;;;5033062;28;20036;-62
2023/01/24 04:31:48;;;;;;;22.83;13.45;;;;;;;;;;5050183;28;20091;-62
2023/01/24 04:34:13;;;;;;;23.83;14.68;;;;;;;;;;5051063;28;20400;-63
2023/01/24 04:36:39;;;;;;;24.30;14.10;;;;;;;;;;5033504;28;20060;-63
2023/01/24 04:39:05;;;;;;;23.63;14.80;;;;;;;;;;5051067;28;20473;-63
2023/01/24 04:41:31;;;;;;;25.50;13.13;;;;;;;;;;5050964;28;20041;-62
2023/01/24 04:43:57;;;;;;;23.25;14.15;;;;;;;;;;5050766;28;20396;-59
2023/01/24 04:46:23;;;;;;;22.85;14.43;;;;;;;;;;5051220;28;20060;-58
2023/01/24 04:48:49;;;;;;;23.55;13.55;;;;;;;;;;5036889;28;20025;-57
2023/01/24 04:51:15;;;;;;;23.77;13.50;;;;;;;;;;5036581;28;20048;-63
2023/01/24 04:53:42;;;;;;;26.15;14.68;;;;;;;;;;5055196;28;20028;-62
2023/01/24 04:56:08;;;;;;;23.42;14.48;;;;;;;;;;5054748;28;20025;-58
2023/01/24 04:58:34;;;;;;;22.40;13.38;;;;;;;;;;5036381;28;20036;-60
2023/01/24 05:01:01;;;;;;;22.60;14.77;;;;;;;;;;5054134;28;20033;-59
2023/01/24 05:03:27;;;;;;;23.77;14.18;;;;;;;;;;5036190;28;21992;-64
2023/01/24 05:05:54;;;;;;;23.98;15.40;;;;;;;;;;5036282;28;20078;-55
2023/01/24 05:08:20;;;;;;;22.05;14.20;;;;;;;;;;5054207;28;20021;-53
2023/01/24 05:10:46;;;;;;;24.52;15.13;;;;;;;;;;5054326;28;20030;-61
2023/01/24 05:13:12;;;;;;;22.95;14.88;;;;;;;;;;5053532;28;20029;-59
2023/01/24 05:15:38;;;;;;;23.75;14.60;;;;;;;;;;5036054;28;20070;-57
2023/01/24 05:18:04;;;;;;;20.92;14.90;;;;;;;;;;5054035;28;20029;-64
2023/01/24 05:20:31;;;;;;;22.27;14.30;;;;;;;;;;5035997;28;20485;-61
2023/01/24 05:22:57;;;;;;;23.05;15.05;;;;;;;;;;5036242;28;20120;-61
2023/01/24 05:25:23;;;;;;;22.65;13.95;;;;;;;;;;5053830;28;20350;-63
2023/01/24 05:27:49;;;;;;;30.13;15.52;;;;;;;;;;5035858;28;20024;-62
2023/01/24 05:30:16;;;;;;;23.38;15.00;;;;;;;;;;5035932;28;20083;-62
2023/01/24 05:32:42;;;;;;;22.23;13.43;;;;;;;;;;5035662;28;20029;-64
2023/01/24 05:35:08;;;;;;;24.92;14.75;;;;;;;;;;5035590;28;20048;-57
2023/01/24 05:37:37;;;;;;;22.77;14.07;;;;;;;;;;5053565;28;20171;-64
2023/01/24 05:40:04;;;;;;;23.30;14.05;;;;;;;;;;5035565;28;20515;-61
2023/01/24 05:42:30;;;;;;;22.85;14.38;;;;;;;;;;5053376;28;20406;-62
2023/01/24 05:44:56;;;;;;;23.27;14.75;;;;;;;;;;5053108;28;20440;-62
2023/01/24 05:47:22;;;;;;;24.05;15.05;;;;;;;;;;5053376;28;20500;-61
2023/01/24 05:49:48;;;;;;;24.67;14.88;;;;;;;;;;5035460;28;20017;-63
2023/01/24 05:52:20;;;;;;;23.17;14.57;;;;;;;;;;5035397;28;20025;-63
2023/01/24 05:54:46;;;;;;;23.95;13.70;;;;;;;;;;5053174;28;20027;-61
2023/01/24 05:57:12;;;;;;;22.70;15.00;;;;;;;;;;5052867;28;20029;-62
2023/01/24 05:59:38;;;;;;;22.35;14.75;;;;;;;;;;5035349;28;20125;-62
2023/01/24 06:02:04;;;;;;;23.98;14.75;;;;;;;;;;5052841;28;20067;-62
2023/01/24 06:04:30;;;;;;;23.65;14.13;;;;;;;;;;5034559;28;20024;-63
2023/01/24 06:06:56;;;;;;;24.40;15.10;;;;;;;;;;5035268;28;20029;-61
2023/01/24 06:09:23;;;;;;;23.30;15.30;;;;;;;;;;5052850;28;20486;-62
2023/01/24 06:11:49;;;;;;;23.65;14.50;;;;;;;;;;5034856;28;20025;-61
2023/01/24 06:14:15;;;;;;;23.70;14.73;;;;;;;;;;5034666;28;20102;-60
2023/01/24 06:16:43;;;;;;;25.35;14.88;;;;;;;;;;5052833;28;20442;-63
2023/01/24 06:19:10;;;;;;;24.42;15.65;;;;;;;;;;5052642;28;20032;-64
2023/01/24 06:21:44;;;;;;;23.85;14.38;;;;;;;;;;5034413;28;20097;-57
2023/01/24 06:24:19;;;;;;;24.85;15.13;;;;;;;;;;5052220;28;20032;-62
2023/01/24 06:26:46;;;;;;;26.63;15.55;;;;;;;;;;5034903;28;20025;-61
2023/01/24 06:29:12;;;;;;;23.10;14.30;;;;;;;;;;5034425;28;20029;-60
2023/01/24 06:31:48;;;;;;;20.50;13.27;;;;;;;;;;5047171;28;20109;-60
2023/01/24 06:34:22;;;;;;;23.10;14.43;;;;;;;;;;5032988;28;20041;-56
2023/01/24 06:36:53;;;;;;;23.88;14.52;;;;;;;;;;5049974;28;20035;-59
2023/01/24 06:39:21;;;;;;;26.42;14.50;;;;;;;;;;5048719;28;20474;-61
2023/01/24 06:41:47;;;;;;;24.77;14.43;;;;;;;;;;5032366;28;20037;-61
2023/01/24 06:44:13;;;;;;;24.45;15.35;;;;;;;;;;5031813;28;20061;-61
2023/01/24 06:46:39;;;;;;;28.60;16.00;;;;;;;;;;5031758;28;20018;-63
2023/01/24 06:49:05;;;;;;;24.30;14.80;;;;;;;;;;5045345;28;20048;-63
2023/01/24 06:51:31;;;;;;;24.08;15.60;;;;;;;;;;5051216;28;20111;-61
2023/01/24 06:53:57;;;;;;;24.65;14.93;;;;;;;;;;5050951;28;20021;-61
2023/01/24 06:56:23;;;;;;;24.02;15.55;;;;;;;;;;5033621;28;20128;-63
2023/01/24 06:58:49;;;;;;;24.08;14.80;;;;;;;;;;5051465;28;20393;-62
2023/01/24 07:01:15;;;;;;;25.65;15.27;;;;;;;;;;5033761;28;20086;-64
2023/01/24 07:03:41;;;;;;;27.13;15.10;;;;;;;;;;5051327;28;20043;-65
2023/01/24 07:06:07;;;;;;;27.13;14.93;;;;;;;;;;5037684;28;20071;-61
2023/01/24 07:08:33;;;;;;;24.92;14.07;;;;;;;;;;5013681;28;20087;-63
2023/01/24 07:10:59;;;;;;;23.00;14.07;;;;;;;;;;5012841;28;20066;-61
2023/01/24 07:13:26;;;;;;;23.95;13.88;;;;;;;;;;5031257;28;20516;-61
2023/01/24 07:15:52;;;;;;;26.50;15.45;;;;;;;;;;5031156;28;20026;-55
2023/01/24 07:18:19;;;;;;;23.33;14.70;;;;;;;;;;5031273;28;20025;-62
2023/01/24 07:20:45;;;;;;;32.28;16.45;;;;;;;;;;5031177;28;20512;-57
2023/01/24 07:23:23;;;;;;;24.60;15.77;;;;;;;;;;5031141;28;20405;-54
2023/01/24 07:25:49;;;;;;;23.55;15.05;;;;;;;;;;5031028;28;20033;-63
2023/01/24 07:28:15;;;;;;;22.15;14.85;;;;;;;;;;5013711;28;20116;-62
2023/01/24 07:30:41;;;;;;;25.42;14.90;;;;;;;;;;5015042;28;20022;-61
2023/01/24 07:33:07;;;;;;;24.52;15.38;;;;;;;;;;5051236;28;20025;-59
2023/01/24 07:35:33;;;;;;;23.58;15.00;;;;;;;;;;5052304;28;20025;-63
2023/01/24 07:38:00;;;;;;;24.67;15.30;;;;;;;;;;5050883;28;20024;-62
2023/01/24 07:40:26;;;;;;;25.58;15.57;;;;;;;;;;5051794;28;20094;-59
2023/01/24 07:42:52;;;;;;;23.13;15.30;;;;;;;;;;5050951;23;20506;-53
2023/01/24 07:45:20;;;;;;;25.17;15.65;;;;;;;;;;5010372;28;20081;-56
2023/01/24 07:47:46;;;;;;;23.27;14.47;;;;;;;;;;5011244;28;20036;-52
2023/01/24 07:50:12;;;;;;;24.10;15.43;;;;;;;;;;5011245;28;20056;-58
2023/01/24 07:52:38;;;;;;;26.38;15.90;;;;;;;;;;4990084;28;20084;-57
2023/01/24 07:55:04;;;;;;;27.15;14.90;;;;;;;;;;4991304;28;20487;-56
2023/01/24 07:57:30;;;;;;;25.05;15.38;;;;;;;;;;4991686;28;20125;-56
2023/01/24 07:59:56;;;;;;;23.92;14.88;;;;;;;;;;4990232;28;20037;-57
2023/01/24 08:02:22;;;;;;;24.30;14.63;;;;;;;;;;4991514;28;20146;-57
2023/01/24 08:04:49;;;;;;;23.67;14.68;;;;;;;;;;4991233;28;20391;-57
2023/01/24 08:07:18;;;;;;;25.38;15.85;;;;;;;;;;4991947;28;20407;-59
2023/01/24 08:09:44;;;;;;;24.23;14.15;;;;;;;;;;4992028;28;20418;-57
2023/01/24 08:12:11;;;;;;;24.25;15.40;;;;;;;;;;4991744;28;20033;-58
2023/01/24 08:14:37;;;;;;;25.23;15.07;;;;;;;;;;4991764;28;20030;-54
2023/01/24 08:17:03;;;;;;;27.45;15.00;;;;;;;;;;4991666;28;20045;-52
2023/01/24 08:19:29;;;;;;;24.70;14.80;;;;;;;;;;4991695;28;20029;-54
2023/01/24 08:21:55;;;;;;;24.52;13.90;;;;;;;;;;4994610;28;20018;-61
2023/01/24 08:24:21;;;;;;;25.10;15.30;;;;;;;;;;4994189;28;20026;-61
2023/01/24 08:26:48;;;;;;;25.45;14.63;;;;;;;;;;4996084;28;20029;-60
2023/01/24 08:29:15;;;;;;;27.27;16.17;;;;;;;;;;4996090;28;20032;-61
2023/01/24 08:31:41;;;;;;;23.25;14.32;;;;;;;;;;4995861;28;20281;-59
2023/01/24 08:34:07;;;;;;;25.95;16.65;;;;;;;;;;4995794;28;20037;-60
2023/01/24 08:36:33;;;;;;;23.67;14.30;;;;;;;;;;4996126;28;20601;-58
2023/01/24 08:38:59;;;;;;;23.42;15.20;;;;;;;;;;4995898;28;20113;-60
2023/01/24 08:41:25;;;;;;;23.33;13.90;;;;;;;;;;4996475;28;20144;-60
2023/01/24 08:43:54;;;;;;;23.30;14.25;;;;;;;;;;4995180;28;20716;-63
2023/01/24 08:46:20;;;;;;;25.77;15.00;;;;;;;;;;4995492;28;20022;-65
2023/01/24 08:48:45;;;;;;;23.05;14.25;;;;;;;;;;4994311;28;20046;-63
2023/01/24 08:51:11;;;;;;;25.65;15.60;;;;;;;;;;4995509;28;20380;-63
2023/01/24 08:53:37;;;;;;;24.40;15.57;;;;;;;;;;4993878;28;20050;-61
2023/01/24 08:56:04;;;;;;;24.27;15.23;;;;;;;;;;4995630;28;20077;-61
2023/01/24 08:58:33;;;;;;;25.00;15.35;;;;;;;;;;4995787;28;20113;-63
2023/01/24 09:00:59;;;;;;;27.20;15.63;;;;;;;;;;4995839;28;20026;-62
2023/01/24 09:03:25;;;;;;;27.33;16.95;;;;;;;;;;4994941;28;20033;-62
2023/01/24 09:05:56;;;;;;;27.25;15.30;;;;;;;;;;4995166;28;20018;-62
2023/01/24 09:08:22;;;;;;;28.08;15.80;;;;;;;;;;4994719;28;20024;-61
2023/01/24 09:10:48;;;;;;;25.52;16.13;;;;;;;;;;4995418;28;20105;-61
2023/01/24 09:13:15;;;;;;;27.05;16.80;;;;;;;;;;4993795;28;20121;-62
2023/01/24 09:15:41;;;;;;;24.88;16.52;;;;;;;;;;4995444;28;20532;-58
2023/01/24 09:18:07;;;;;;;25.73;15.50;;;;;;;;;;4995188;28;20030;-60
2023/01/24 09:20:34;;;;;;;26.67;14.98;;;;;;;;;;4993288;28;20019;-59
2023/01/24 09:23:00;;;;;;;23.38;15.40;;;;;;;;;;4994953;28;20034;-59
2023/01/24 09:25:26;;;;;;;25.60;15.20;;;;;;;;;;4994479;28;20040;-58
2023/01/24 09:27:53;;;;;;;22.90;14.30;;;;;;;;;;4994716;28;20080;-58
2023/01/24 09:30:20;;;;;;;25.38;16.17;;;;;;;;;;4994552;28;20026;-60
2023/01/24 09:32:46;;;;;;;25.45;14.48;;;;;;;;;;4993479;28;20018;-60
2023/01/24 09:35:12;;;;;;;25.88;15.15;;;;;;;;;;4994341;28;20487;-60
2023/01/24 09:37:40;;;;;;;25.08;14.75;;;;;;;;;;4994616;28;20033;-61
2023/01/24 09:40:06;;;;;;;25.10;15.07;;;;;;;;;;4994228;28;20040;-60
2023/01/24 09:42:41;;;;;;;29.73;14.85;;;;;;;;;;4994166;28;20069;-57
2023/01/24 09:45:07;;;;;;;24.02;15.00;;;;;;;;;;4994093;28;20027;-57
2023/01/24 09:47:33;;;;;;;24.30;14.65;;;;;;;;;;4994384;28;20479;-60
2023/01/24 09:50:01;;;;;;;27.05;15.95;;;;;;;;;;4994323;28;20027;-60
2023/01/24 09:52:35;;;;;;;26.83;15.98;;;;;;;;;;4994084;28;20033;-60
2023/01/24 09:55:04;;;;;;;27.15;15.43;;;;;;;;;;4993484;28;20455;-60
2023/01/24 09:57:35;;;;;;;27.67;15.00;;;;;;;;;;4994210;28;20030;-58
2023/01/24 10:00:19;;;;;;;28.65;14.88;;;;;;;;;;4994580;28;20105;-59
2023/01/24 10:02:45;;;;;;;22.55;13.93;;;;;;;;;;4993697;28;20085;-60
2023/01/24 10:05:15;;;;;;;27.58;15.30;;;;;;;;;;4993858;28;20034;-62
2023/01/24 10:07:56;;;;;;;25.48;15.27;;;;;;;;;;4994303;28;20102;-62
2023/01/24 10:10:28;;;;;;;23.63;13.95;;;;;;;;;;4994223;28;20022;-61
2023/01/24 10:13:01;;;;;;;25.15;15.30;;;;;;;;;;4993873;28;20022;-59
2023/01/24 10:15:50;;;;;;;26.83;16.58;;;;;;;;;;4994171;28;20033;-62
2023/01/24 10:18:19;;;;;;;25.52;15.15;;;;;;;;;;4993552;28;20018;-62
2023/01/24 10:20:45;;;;;;;28.17;15.02;;;;;;;;;;4994208;28;20023;-60
2023/01/24 10:23:14;;;;;;;24.00;15.00;;;;;;;;;;4993966;28;20027;-58
2023/01/24 10:25:49;;;;;;;22.42;13.63;;;;;;;;;;4992375;28;20038;-61
2023/01/24 10:28:21;;;;;;;28.20;16.02;;;;;;;;;;4994060;28;20030;-62
2023/01/24 10:31:02;;;;;;;25.88;14.85;;;;;;;;;;4993884;28;20033;-62
2023/01/24 10:33:31;;;;;;;25.52;15.63;;;;;;;;;;4992959;28;20057;-60
2023/01/24 10:36:00;;;;;;;26.80;13.80;;;;;;;;;;4993877;28;20034;-59
2023/01/24 10:38:27;;;;;;;25.05;14.60;;;;;;;;;;4993262;28;20105;-60
2023/01/24 10:40:54;;;;;;;26.75;14.43;;;;;;;;;;4993471;28;20042;-60
2023/01/24 10:43:23;;;;;;;26.88;14.95;;;;;;;;;;4993191;28;20042;-59
2023/01/24 10:45:49;;;;;;;;;;;;;;;;;;4993036;28;20117;-59
2023/01/24 10:48:31;;;;;;;29.27;14.98;;;;;;;;;;4993210;28;19906;-59
2023/01/24 10:51:10;;;;;;;24.13;14.10;;;;;;;;;;4992218;28;20042;-60
2023/01/24 10:53:35;;;;;;;;;;;;;;;;;;4992955;28;20029;-63
2023/01/24 10:56:05;;;;;;;25.17;15.00;;;;;;;;;;4993085;28;19910;-64
2023/01/24 10:58:36;;;;;;;22.33;14.15;;;;;;;;;;4992930;28;20060;-60
2023/01/24 11:01:20;;;;;;;25.02;14.15;;;;;;;;;;4992810;28;20030;-62
2023/01/24 11:03:48;;;;;;;22.70;15.05;;;;;;;;;;4993003;28;20053;-64
2023/01/24 11:06:25;;;;;;;23.55;13.80;;;;;;;;;;4992135;28;20023;-61
2023/01/24 11:08:55;;;;;;;22.98;13.90;;;;;;;;;;4989697;28;20130;-61
2023/01/24 11:11:29;;;;;;;22.90;13.65;;;;;;;;;;4984577;28;20062;-61
2023/01/24 11:13:57;;;;;;;24.00;14.75;;;;;;;;;;4989884;28;20085;-61
2023/01/24 11:16:26;;;;;;;23.50;14.13;;;;;;;;;;4992012;28;20068;-63
2023/01/24 11:19:00;;;;;;;25.33;14.98;;;;;;;;;;4992311;28;20033;-64
2023/01/24 11:21:27;;;;;;;26.13;14.38;;;;;;;;;;4993118;28;20439;-64
2023/01/24 11:24:20;;;;;;;23.95;15.20;;;;;;;;;;4991261;28;20030;-63
2023/01/24 11:26:55;;;;;;;28.63;15.23;;;;;;;;;;4991789;28;20043;-63
2023/01/24 11:29:22;;;;;;;24.02;14.40;;;;;;;;;;4993340;28;20460;-63
2023/01/24 11:31:53;;;;;;;24.17;14.60;;;;;;;;;;4995398;28;20034;-60
2023/01/24 11:34:22;;;;;;;24.30;14.07;;;;;;;;;;5011005;28;20038;-61
2023/01/24 11:36:51;;;;;;;21.95;13.48;;;;;;;;;;5012197;28;20402;-62
2023/01/24 11:39:23;;;;;;;24.73;14.40;;;;;;;;;;5011372;28;20396;-63
2023/01/24 11:41:57;;;;;;;25.80;15.20;;;;;;;;;;5012008;28;20041;-64
2023/01/24 11:44:31;;;;;;;26.13;14.80;;;;;;;;;;5012605;28;20026;-63
2023/01/24 11:47:02;;;;;;;26.02;14.55;;;;;;;;;;5011954;28;20022;-64
2023/01/24 11:49:37;;;;;;;24.88;14.23;;;;;;;;;;5012369;28;20033;-62
2023/01/24 11:52:21;;;;;;;24.77;14.50;;;;;;;;;;5010757;28;20018;-64
2023/01/24 11:55:09;;;;;;;21.38;14.10;;;;;;;;;;5012408;28;20034;-62
2023/01/24 11:57:38;;;;;;;24.17;12.98;;;;;;;;;;5012264;28;20033;-64
2023/01/24 12:00:23;;;;;;;21.65;13.15;;;;;;;;;;5012433;28;20026;-64
2023/01/24 12:03:00;;;;;;;24.75;13.73;;;;;;;;;;5011793;28;20065;-61
2023/01/24 12:05:26;;;;;;;33.42;14.90;;;;;;;;;;5011785;28;20105;-62
2023/01/24 12:08:02;;;;;;;26.58;13.27;;;;;;;;;;5010711;28;20378;-63
2023/01/24 12:10:44;;;;;;;23.23;12.88;;;;;;;;;;5012234;28;20041;-63
2023/01/24 12:13:19;;;;;;;23.55;13.30;;;;;;;;;;5011362;28;20026;-65
2023/01/24 12:15:54;;;;;;;24.90;14.15;;;;;;;;;;5011894;28;20095;-62
2023/01/24 12:18:20;;;;;;;23.52;13.23;;;;;;;;;;5012156;28;20101;-63
2023/01/24 12:20:46;;;;;;;24.90;13.15;;;;;;;;;;5011761;28;20160;-64
2023/01/24 12:23:27;;;;;;;25.52;14.68;;;;;;;;;;5011953;28;20068;-65
2023/01/24 12:25:53;;;;;;;24.30;14.07;;;;;;;;;;5011798;28;20026;-63
2023/01/24 12:28:34;;;;;;;22.65;13.50;;;;;;;;;;5012705;28;20040;-62
2023/01/24 12:31:01;;;;;;;29.17;14.18;;;;;;;;;;5011597;28;20018;-61
2023/01/24 12:33:31;;;;;;;21.77;13.45;;;;;;;;;;5011500;28;20025;-64
2023/01/24 12:36:16;;;;;;;22.60;12.73;;;;;;;;;;5012217;28;20022;-64
2023/01/24 12:38:44;;;;;;;23.55;13.30;;;;;;;;;;5011729;28;20084;-62
2023/01/24 12:41:26;;;;;;;20.73;12.77;;;;;;;;;;5010163;28;20030;-63
2023/01/24 12:43:58;;;;;;;21.23;13.15;;;;;;;;;;5011232;28;20073;-61
2023/01/24 12:46:33;;;;;;;35.85;15.75;;;;;;;;;;5011488;28;20022;-64
2023/01/24 12:49:05;;;;;;;24.15;12.85;;;;;;;;;;5010146;28;20026;-62
2023/01/24 12:51:47;;;;;;;24.30;14.02;;;;;;;;;;5011477;28;20592;-60
2023/01/24 12:54:20;;;;;;;26.83;12.80;;;;;;;;;;5011268;28;20025;-62
2023/01/24 12:57:10;;;;;;;20.65;12.73;;;;;;;;;;5010260;28;20049;-62
2023/01/24 12:59:36;;;;;;;22.17;12.85;;;;;;;;;;5011292;28;20109;-62
2023/01/24 13:02:21;;;;;;;23.13;13.15;;;;;;;;;;5011346;28;20026;-64
2023/01/24 13:04:58;;;;;;;21.73;13.48;;;;;;;;;;5011139;28;20065;-62
2023/01/24 13:07:31;;;;;;;24.00;13.90;;;;;;;;;;5012051;28;20478;-65
2023/01/24 13:10:03;;;;;;;24.83;13.60;;;;;;;;;;5015556;28;20056;-64
2023/01/24 13:12:29;;;;;;;27.45;13.57;;;;;;;;;;5015525;28;20026;-64
2023/01/24 13:14:58;;;;;;;24.83;14.15;;;;;;;;;;5015237;28;20394;-62
2023/01/24 13:17:24;;;;;;;23.20;13.32;;;;;;;;;;5014697;28;20379;-64
2023/01/24 13:20:22;;;;;;;22.77;13.32;;;;;;;;;;5014471;28;20036;-64
2023/01/24 13:23:27;;;;;;;24.10;13.00;;;;;;;;;;5003253;28;20100;-64
2023/01/24 13:26:05;;;;;;;21.48;12.45;;;;;;;;;;4953960;29;20073;-64
2023/01/24 13:28:49;;;;;;;21.52;12.25;;;;;;;;;;4954102;29;20130;-64
2023/01/24 13:31:23;;;;;;;21.83;12.88;;;;;;;;;;4978141;28;20053;-63
2023/01/24 13:33:52;;;;;;;25.25;13.43;;;;;;;;;;5013908;28;20084;-62
2023/01/24 13:36:31;;;;;;;22.27;12.07;;;;;;;;;;5014379;28;20021;-61
2023/01/24 13:38:58;;;;;;;21.23;12.02;;;;;;;;;;5014581;28;20109;-63
2023/01/24 13:41:26;;;;;;;21.48;12.23;;;;;;;;;;5014346;28;20045;-67
2023/01/24 13:43:58;;;;;;;21.08;12.52;;;;;;;;;;5015436;28;20061;-61
2023/01/24 13:46:43;;;;;;;21.95;12.68;;;;;;;;;;5014420;28;20021;-64
2023/01/24 13:49:15;;;;;;;22.85;12.82;;;;;;;;;;5014479;28;20374;-62
2023/01/24 13:51:48;;;;;;;24.00;12.57;;;;;;;;;;5014196;28;20037;-62
2023/01/24 13:54:19;;;;;;;21.58;12.10;;;;;;;;;;5012521;28;20439;-60
2023/01/24 13:57:05;;;;;;;20.50;11.65;;;;;;;;;;5014158;28;20085;-64
2023/01/24 13:59:32;;;;;;;20.17;12.15;;;;;;;;;;5012834;28;20034;-63
2023/01/24 14:01:58;;;;;;;23.40;13.43;;;;;;;;;;5013802;28;20026;-62
2023/01/24 14:04:41;;;;;;;19.13;11.60;;;;;;;;;;5013596;28;20032;-60
2023/01/24 14:07:17;;;;;;;21.85;12.27;;;;;;;;;;5013918;28;20052;-62
2023/01/24 14:09:44;;;;;;;19.65;12.43;;;;;;;;;;5014316;28;20028;-61
2023/01/24 14:12:15;;;;;;;24.23;13.07;;;;;;;;;;5013451;28;20026;-63
2023/01/24 14:15:01;;;;;;;22.83;12.82;;;;;;;;;;5014649;28;20112;-60
2023/01/24 14:17:48;;;;;;;20.50;12.23;;;;;;;;;;5003764;28;20040;-61
2023/01/24 14:20:16;;;;;;;22.15;13.35;;;;;;;;;;5013722;28;20033;-64
2023/01/24 14:22:44;;;;;;;21.67;12.63;;;;;;;;;;5013277;28;20057;-64
2023/01/24 14:25:29;;;;;;;23.30;12.43;;;;;;;;;;5012830;28;20037;-62
2023/01/24 14:27:59;;;;;;;20.27;11.88;;;;;;;;;;5013463;28;20061;-61
2023/01/24 14:30:37;;;;;;;21.23;12.43;;;;;;;;;;5012515;28;20030;-62
2023/01/24 14:33:22;;;;;;;22.42;13.23;;;;;;;;;;5011048;28;20074;-63
2023/01/24 14:35:53;;;;;;;22.83;12.77;;;;;;;;;;5013361;28;20052;-59
2023/01/24 14:38:19;;;;;;;23.52;14.73;;;;;;;;;;5011953;28;20022;-61
2023/01/24 14:40:49;;;;;;;21.45;12.95;;;;;;;;;;5012741;28;20026;-61
2023/01/24 14:43:16;;;;;;;22.45;13.20;;;;;;;;;;5012938;28;20036;-59
2023/01/24 14:45:42;;;;;;;25.10;12.55;;;;;;;;;;5012840;28;20072;-63
2023/01/24 14:48:10;;;;;;;23.80;13.27;;;;;;;;;;5012977;28;20033;-61
2023/01/24 14:50:38;;;;;;;22.70;13.18;;;;;;;;;;5012208;28;20034;-63
2023/01/24 14:53:22;;;;;;;20.83;12.68;;;;;;;;;;5012233;28;20459;-63
2023/01/24 14:55:48;;;;;;;22.83;12.90;;;;;;;;;;5012358;28;20029;-61
2023/01/24 14:58:17;;;;;;;22.08;13.48;;;;;;;;;;5012582;28;20026;-64
2023/01/24 15:00:43;;;;;;;21.33;12.25;;;;;;;;;;5011976;28;20173;-63
2023/01/24 15:03:13;;;;;;;23.05;13.57;;;;;;;;;;5012606;28;20410;-63
2023/01/24 15:05:39;;;;;;;22.42;11.65;;;;;;;;;;5012684;28;20026;-63
2023/01/24 15:08:07;;;;;;;21.58;13.43;;;;;;;;;;5012123;28;20461;-62
2023/01/24 15:10:34;;;;;;;25.90;12.80;;;;;;;;;;5012324;28;20032;-63